createdAt,value
2019-03-05T00:02:39.802Z,67.80
2019-03-05T00:06:42.803Z,67.60
2019-03-05T00:10:45.803Z,67.50
2019-03-05T00:14:48.819Z,67.00
2019-03-05T00:18:51.861Z,67.00
2019-03-05T00:22:54.838Z,66.60
2019-03-05T00:26:57.842Z,66.40
2019-03-05T00:31:07.743Z,66.60
2019-03-05T00:35:26.562Z,66.30
2019-03-05T00:39:36.468Z,66.50
2019-03-05T00:43:52.830Z,66.50
2019-03-05T00:48:06.690Z,68.60
2019-03-05T00:52:36.102Z,70.80
2019-03-05T00:56:42.926Z,70.70
2019-03-05T01:00:55.241Z,70.90
2019-03-05T01:05:10.662Z,70.40
2019-03-05T01:09:15.505Z,70.10
2019-03-05T01:13:18.714Z,69.20
2019-03-05T01:17:21.742Z,69.10
2019-03-05T01:21:24.798Z,68.70
2019-03-05T01:25:30.928Z,69.00
2019-03-05T01:29:33.913Z,69.10
2019-03-05T01:33:50.769Z,69.20
2019-03-05T01:37:53.758Z,68.90
2019-03-05T01:41:56.766Z,68.20
2019-03-05T01:45:59.799Z,68.40
2019-03-05T01:50:07.750Z,68.40
2019-03-05T01:54:10.843Z,67.60
2019-03-05T01:58:13.838Z,67.70
2019-03-05T02:02:16.836Z,67.30
2019-03-05T02:06:19.819Z,66.60
2019-03-05T02:10:22.923Z,66.80
2019-03-05T02:14:25.904Z,66.40
2019-03-05T02:18:28.977Z,66.40
2019-03-05T02:22:32.715Z,67.20
2019-03-05T02:27:11.590Z,67.20
2019-03-05T02:31:21.391Z,67.00
2019-03-05T02:35:33.924Z,67.10
2019-03-05T02:39:55.783Z,67.30
2019-03-05T02:44:08.609Z,67.20
2019-03-05T02:48:21.579Z,66.80
2019-03-05T02:52:41.283Z,67.10
2019-03-05T02:56:51.359Z,67.30
2019-03-05T03:00:56.272Z,67.40
2019-03-05T03:05:13.043Z,67.00
2019-03-05T03:09:31.906Z,67.10
2019-03-05T03:13:34.907Z,67.10
2019-03-05T03:17:37.911Z,67.20
2019-03-05T03:21:40.902Z,66.80
2019-03-05T03:25:43.894Z,66.80
2019-03-05T03:29:46.896Z,66.50
2019-03-05T03:33:49.902Z,66.00
2019-03-05T03:37:52.905Z,65.70
2019-03-05T03:41:55.908Z,65.90
2019-03-05T03:45:58.910Z,65.50
2019-03-05T03:50:03.412Z,65.20
2019-03-05T03:54:08.330Z,65.20
2019-03-05T03:58:11.447Z,65.20
2019-03-05T04:02:14.438Z,65.30
2019-03-05T04:06:17.455Z,65.70
2019-03-05T04:10:20.456Z,65.80
2019-03-05T04:14:23.492Z,65.60
2019-03-05T04:18:26.512Z,65.90
2019-03-05T04:22:29.533Z,66.20
2019-03-05T04:26:32.530Z,66.20
2019-03-05T04:30:35.563Z,66.20
2019-03-05T04:34:38.555Z,66.50
2019-03-05T04:38:41.563Z,66.00
2019-03-05T04:42:44.555Z,66.30
2019-03-05T04:46:49.052Z,67.10
2019-03-05T04:51:02.671Z,66.70
2019-03-05T04:55:06.752Z,67.10
2019-03-05T04:59:10.871Z,67.30
2019-03-05T05:03:13.966Z,67.20
2019-03-05T05:07:16.979Z,67.00
2019-03-05T05:11:19.997Z,66.90
2019-03-05T05:15:25.878Z,66.40
2019-03-05T05:19:29.155Z,65.90
2019-03-05T05:23:32.151Z,66.10
2019-03-05T05:27:35.140Z,66.50
2019-03-05T05:31:38.143Z,65.70
2019-03-05T05:35:41.157Z,65.80
2019-03-05T05:40:20.166Z,66.00
2019-03-05T05:44:23.198Z,65.60
2019-03-05T05:48:26.288Z,66.00
2019-03-05T05:52:29.291Z,66.30
2019-03-05T05:56:34.335Z,65.90
2019-03-05T06:00:39.345Z,65.90
2019-03-05T06:04:42.346Z,65.70
2019-03-05T06:08:45.341Z,65.90
2019-03-05T06:12:48.339Z,66.10
2019-03-05T06:16:51.347Z,65.80
2019-03-05T06:20:54.346Z,65.70
2019-03-05T06:24:57.333Z,65.80
2019-03-05T06:29:00.332Z,65.70
2019-03-05T06:33:03.342Z,65.30
2019-03-05T06:37:06.353Z,65.10
2019-03-05T06:41:09.655Z,64.10
2019-03-05T06:45:18.266Z,64.50
2019-03-05T06:49:21.270Z,64.30
2019-03-05T06:53:24.258Z,64.30
2019-03-05T06:57:27.347Z,63.50
2019-03-05T07:01:30.352Z,63.50
2019-03-05T07:06:10.587Z,63.90
2019-03-05T07:10:17.414Z,64.30
2019-03-05T07:14:36.616Z,64.60
2019-03-05T07:18:42.218Z,64.90
2019-03-05T07:22:49.027Z,64.80
2019-03-05T07:26:52.038Z,64.30
2019-03-05T07:30:57.095Z,64.40
2019-03-05T07:35:00.344Z,64.20
2019-03-05T07:39:07.220Z,63.90
2019-03-05T07:43:10.230Z,63.80
2019-03-05T07:47:13.236Z,63.70
2019-03-05T07:51:16.238Z,63.00
2019-03-05T07:55:19.222Z,63.10
2019-03-05T07:59:23.560Z,62.20
2019-03-05T08:03:26.599Z,62.00
2019-03-05T08:07:29.602Z,61.30
2019-03-05T08:11:32.659Z,60.40
2019-03-05T08:15:47.344Z,60.20
2019-03-05T08:19:50.362Z,61.10
2019-03-05T08:23:53.359Z,60.50
2019-03-05T08:27:56.342Z,60.00
2019-03-05T08:31:59.336Z,59.50
2019-03-05T08:36:02.732Z,59.00
2019-03-05T08:40:11.210Z,58.60
2019-03-05T08:44:14.214Z,58.80
2019-03-05T08:48:18.305Z,58.60
2019-03-05T08:52:21.284Z,58.20
2019-03-05T08:56:24.351Z,58.70
2019-03-05T09:00:29.898Z,58.40
2019-03-05T09:04:33.884Z,58.30
2019-03-05T09:08:38.480Z,58.30
2019-03-05T09:12:43.863Z,58.20
2019-03-05T09:16:46.863Z,58.00
2019-03-05T09:20:50.006Z,57.80
2019-03-05T09:24:54.995Z,58.20
2019-03-05T09:28:58.063Z,58.20
2019-03-05T09:33:01.047Z,58.50
2019-03-05T09:37:05.097Z,59.40
2019-03-05T09:41:08.098Z,60.70
2019-03-05T09:45:13.900Z,59.80
2019-03-05T09:49:16.907Z,59.90
2019-03-05T09:53:19.923Z,60.40
2019-03-05T09:57:23.964Z,62.00
2019-03-05T10:01:29.313Z,62.10
2019-03-05T10:05:33.367Z,62.30
2019-03-05T10:09:36.459Z,61.80
2019-03-05T10:13:39.582Z,62.40
2019-03-05T10:17:42.832Z,63.70
2019-03-05T10:21:46.716Z,64.20
2019-03-05T10:25:49.845Z,64.30
2019-03-05T10:29:53.032Z,64.10
2019-03-05T10:33:57.046Z,64.40
2019-03-05T10:38:03.491Z,64.40
2019-03-05T10:42:06.519Z,65.40
2019-03-05T10:46:10.112Z,67.40
2019-03-05T10:50:22.561Z,69.30
2019-03-05T10:54:25.747Z,70.30
2019-03-05T10:58:33.668Z,71.10
2019-03-05T11:02:33.912Z,71.30
2019-03-05T11:06:37.082Z,71.80
2019-03-05T11:10:41.154Z,71.60
2019-03-05T11:14:44.403Z,71.90
2019-03-05T11:18:47.421Z,71.30
2019-03-05T11:22:50.622Z,71.50
2019-03-05T11:26:53.619Z,71.90
2019-03-05T11:30:56.719Z,86.30
2019-03-05T11:34:59.872Z,69.90
2019-03-05T11:39:07.632Z,70.20
2019-03-05T11:43:12.935Z,71.10
2019-03-05T11:47:16.086Z,72.10
2019-03-05T11:51:19.082Z,72.30
2019-03-05T11:55:23.709Z,72.10
2019-03-05T11:59:26.732Z,72.30
2019-03-05T12:03:31.138Z,72.10
2019-03-05T12:07:34.138Z,72.40
2019-03-05T12:11:37.145Z,72.40
2019-03-05T12:15:43.039Z,72.90
2019-03-05T12:19:47.145Z,72.20
2019-03-05T12:23:50.236Z,72.10
2019-03-05T12:27:53.227Z,70.80
2019-03-05T12:31:56.235Z,72.00
2019-03-05T12:35:59.229Z,71.50
2019-03-05T12:40:03.728Z,71.10
2019-03-05T12:44:06.746Z,70.40
2019-03-05T12:48:09.783Z,70.50
2019-03-05T12:52:12.968Z,70.60
2019-03-05T12:56:23.506Z,70.90
2019-03-05T13:00:31.215Z,71.20
2019-03-05T13:04:35.994Z,71.80
2019-03-05T13:08:39.010Z,72.00
2019-03-05T13:12:42.024Z,72.00
2019-03-05T13:16:45.063Z,71.80
2019-03-05T13:20:48.087Z,71.30
2019-03-05T13:24:51.318Z,71.10
2019-03-05T13:28:54.494Z,70.50
2019-03-05T13:32:58.958Z,71.40
2019-03-05T13:37:02.512Z,69.30
2019-03-05T13:41:05.522Z,68.40
2019-03-05T13:45:09.229Z,67.40
2019-03-05T13:49:22.807Z,66.90
2019-03-05T13:53:32.404Z,67.40
2019-03-05T13:57:51.502Z,67.30
2019-03-05T14:01:52.740Z,67.40
2019-03-05T14:06:03.530Z,67.20
2019-03-05T14:10:06.605Z,66.30
2019-03-05T14:14:23.360Z,65.90
2019-03-05T14:18:26.421Z,67.50
2019-03-05T14:22:29.407Z,62.30
2019-03-05T14:26:32.442Z,63.20
2019-03-05T14:30:36.481Z,63.90
2019-03-05T14:34:39.783Z,64.00
2019-03-05T14:38:42.787Z,63.20
2019-03-05T14:42:45.824Z,63.40
2019-03-05T14:46:54.773Z,63.10
2019-03-05T14:50:57.768Z,63.20
2019-03-05T14:55:00.771Z,63.80
2019-03-05T14:59:03.790Z,63.20
2019-03-05T15:03:07.167Z,63.80
2019-03-05T15:07:10.633Z,64.30
2019-03-05T15:11:13.738Z,64.40
2019-03-05T15:15:24.832Z,64.50
2019-03-05T15:19:27.820Z,65.10
2019-03-05T15:23:30.836Z,68.20
2019-03-05T15:27:34.981Z,63.80
2019-03-05T15:31:38.043Z,64.30
2019-03-05T15:35:41.189Z,65.20
2019-03-05T15:39:44.237Z,65.30
2019-03-05T15:43:48.264Z,65.80
2019-03-05T15:47:51.369Z,66.70
2019-03-05T15:51:54.377Z,66.80
2019-03-05T15:55:57.379Z,66.70
2019-03-05T16:00:00.437Z,66.30
2019-03-05T16:04:03.466Z,64.90
2019-03-05T16:08:06.667Z,63.80
2019-03-05T16:12:10.727Z,64.50
2019-03-05T16:16:13.875Z,64.60
2019-03-05T16:20:18.072Z,80.20
2019-03-05T16:24:21.080Z,65.20
2019-03-05T16:28:24.513Z,65.20
2019-03-05T16:32:32.095Z,65.50
2019-03-05T16:36:37.805Z,65.70
2019-03-05T16:40:45.788Z,65.60
2019-03-05T16:44:53.622Z,65.90
2019-03-05T16:49:15.145Z,65.50
2019-03-05T16:53:23.254Z,65.10
2019-03-05T16:57:40.052Z,65.20
2019-03-05T17:01:47.725Z,65.40
2019-03-05T17:05:55.459Z,65.60
2019-03-05T17:10:00.907Z,66.30
2019-03-05T17:14:03.923Z,67.00
2019-03-05T17:18:07.035Z,67.40
2019-03-05T17:22:10.143Z,67.70
2019-03-05T17:26:13.144Z,68.20
2019-03-05T17:30:16.439Z,68.60
2019-03-05T17:34:19.435Z,68.90
2019-03-05T17:38:22.435Z,69.10
2019-03-05T17:42:25.436Z,69.60
2019-03-05T17:46:28.431Z,70.00
2019-03-05T17:50:31.550Z,70.10
2019-03-05T17:54:34.540Z,69.90
2019-03-05T17:58:37.546Z,70.00
2019-03-05T18:02:40.534Z,70.70
2019-03-05T18:06:43.541Z,70.90
2019-03-05T18:10:47.979Z,70.10
2019-03-05T18:14:50.986Z,70.30
2019-03-05T18:18:53.972Z,69.80
2019-03-05T18:22:56.961Z,70.10
2019-03-05T18:26:59.964Z,70.40
2019-03-05T18:31:02.975Z,70.30
2019-03-05T18:35:07.391Z,70.60
2019-03-05T18:39:12.326Z,70.20
2019-03-05T18:43:15.342Z,70.20
2019-03-05T18:47:18.340Z,70.50
2019-03-05T18:51:21.630Z,70.40
2019-03-05T18:55:24.733Z,70.40
2019-03-05T18:59:27.722Z,70.60
2019-03-05T19:03:30.742Z,70.90
2019-03-05T19:07:33.754Z,70.90
2019-03-05T19:11:38.053Z,70.40
2019-03-05T19:15:41.055Z,70.00
2019-03-05T19:19:44.058Z,70.20
2019-03-05T19:23:47.050Z,70.20
2019-03-05T19:27:50.455Z,70.60
2019-03-05T19:31:53.487Z,69.90
2019-03-05T19:35:56.471Z,70.20
2019-03-05T19:39:59.486Z,70.20
2019-03-05T19:44:02.485Z,70.40
2019-03-05T19:48:05.620Z,70.40
2019-03-05T19:52:08.662Z,70.40
2019-03-05T19:56:11.762Z,70.30
2019-03-05T20:00:22.202Z,70.30
2019-03-05T20:04:25.214Z,70.70
2019-03-05T20:08:28.204Z,71.10
2019-03-05T20:12:32.672Z,70.90
2019-03-05T20:16:35.665Z,71.40
2019-03-05T20:20:38.687Z,71.10
2019-03-05T20:24:41.706Z,70.90
2019-03-05T20:28:44.726Z,71.20
2019-03-05T20:32:47.932Z,71.50
2019-03-05T20:36:51.967Z,71.20
2019-03-05T20:40:55.311Z,71.60
2019-03-05T20:45:00.227Z,71.60
2019-03-05T20:49:03.326Z,71.50
2019-03-05T20:53:06.328Z,71.70
2019-03-05T20:57:09.337Z,71.70
2019-03-05T21:01:12.322Z,71.90
2019-03-05T21:05:15.339Z,71.70
2019-03-05T21:09:21.026Z,72.50
2019-03-05T21:13:25.817Z,72.20
2019-03-05T21:17:28.815Z,72.10
2019-03-05T21:21:31.847Z,72.10
2019-03-05T21:25:34.825Z,72.40
2019-03-05T21:29:37.838Z,71.80
2019-03-05T21:33:40.876Z,71.70
2019-03-05T21:37:44.097Z,71.60
2019-03-05T21:41:47.117Z,71.40
2019-03-05T21:46:00.854Z,71.60
2019-03-05T21:50:07.661Z,72.10
2019-03-05T21:54:10.798Z,72.40
2019-03-05T21:58:13.791Z,72.80
2019-03-05T22:02:16.786Z,72.40
2019-03-05T22:06:19.790Z,72.50
2019-03-05T22:10:23.179Z,72.50
2019-03-05T22:14:27.877Z,72.80
2019-03-05T22:18:31.293Z,73.40
2019-03-05T22:22:34.290Z,72.40
2019-03-05T22:26:37.300Z,72.40
2019-03-05T22:30:40.707Z,72.10
2019-03-05T22:34:43.995Z,71.90
2019-03-05T22:38:50.184Z,71.90
2019-03-05T22:42:59.019Z,71.60
2019-03-05T22:47:02.120Z,72.00
2019-03-05T22:51:05.098Z,71.90
2019-03-05T22:55:15.988Z,71.70
2019-03-05T22:59:19.087Z,72.10
2019-03-05T23:03:24.599Z,72.30
2019-03-05T23:07:28.023Z,72.10
2019-03-05T23:11:31.050Z,72.10
2019-03-05T23:15:35.652Z,72.70
2019-03-05T23:19:39.338Z,72.50
2019-03-05T23:23:42.691Z,73.00
2019-03-05T23:27:45.699Z,72.60
2019-03-05T23:31:48.705Z,72.60
2019-03-05T23:35:51.697Z,73.10
2019-03-05T23:39:54.692Z,74.10
2019-03-05T23:43:57.703Z,73.70
2019-03-05T23:48:01.116Z,73.60
2019-03-05T23:52:04.110Z,74.40
2019-03-05T23:56:07.111Z,75.20
